createdAt,value
2023-02-06T00:04:30.271Z,1.46
2023-02-06T00:09:38.369Z,1.44
2023-02-06T00:14:42.140Z,1.43
2023-02-06T00:19:46.159Z,1.40
2023-02-06T00:24:52.535Z,1.38
2023-02-06T00:29:54.068Z,1.36
2023-02-06T00:34:55.627Z,1.34
2023-02-06T00:40:00.864Z,1.33
2023-02-06T00:45:07.944Z,1.30
2023-02-06T00:50:11.787Z,1.28
2023-02-06T00:55:13.616Z,1.26
2023-02-06T01:00:27.017Z,1.24
2023-02-06T01:05:30.533Z,1.24
2023-02-06T01:10:37.024Z,1.23
2023-02-06T01:15:38.617Z,1.21
2023-02-06T01:20:47.567Z,1.17
2023-02-06T01:25:50.261Z,1.14
2023-02-06T01:31:01.799Z,1.10
2023-02-06T01:36:05.765Z,1.06
2023-02-06T01:41:11.304Z,1.01
2023-02-06T01:46:17.257Z,0.95
2023-02-06T01:51:28.037Z,0.87
2023-02-06T01:56:31.718Z,0.81
2023-02-06T02:01:36.220Z,0.79
2023-02-06T02:06:42.028Z,0.79
2023-02-06T02:11:58.601Z,0.80
2023-02-06T02:17:10.914Z,0.80
2023-02-06T02:22:45.184Z,0.79
2023-02-06T02:28:26.960Z,0.75
2023-02-06T02:34:17.847Z,0.72
2023-02-06T02:39:48.285Z,0.72
2023-02-06T02:45:15.534Z,0.71
2023-02-06T02:50:19.728Z,0.71
2023-02-06T02:55:35.068Z,0.69
2023-02-06T03:00:47.468Z,0.69
2023-02-06T03:06:14.362Z,0.67
2023-02-06T03:11:22.208Z,0.67
2023-02-06T03:16:57.785Z,0.67
2023-02-06T03:22:03.231Z,0.64
2023-02-06T03:27:11.128Z,0.64
2023-02-06T03:32:48.453Z,0.61
2023-02-06T03:37:55.598Z,0.57
2023-02-06T03:43:00.707Z,0.54
2023-02-06T03:48:15.047Z,0.51
2023-02-06T03:53:19.325Z,0.47
2023-02-06T03:58:22.407Z,0.40
2023-02-06T04:03:29.266Z,0.38
2023-02-06T04:08:42.814Z,0.36
2023-02-06T04:13:44.344Z,0.33
2023-02-06T04:18:45.881Z,0.31
2023-02-06T04:23:54.685Z,0.29
2023-02-06T04:28:57.408Z,0.26
2023-02-06T04:33:58.931Z,0.23
2023-02-06T04:39:05.185Z,0.19
2023-02-06T04:44:09.114Z,0.11
2023-02-06T04:49:18.532Z,0.08
2023-02-06T04:54:22.572Z,0.08
2023-02-06T04:59:26.364Z,0.06
2023-02-06T05:04:33.190Z,0.06
2023-02-06T05:09:42.052Z,0.07
2023-02-06T05:14:55.837Z,0.07
2023-02-06T05:19:58.427Z,0.05
2023-02-06T05:25:06.134Z,0.01
2023-02-06T05:30:17.046Z,-0.04
2023-02-06T05:35:38.198Z,-0.05
2023-02-06T05:40:40.171Z,-0.05
2023-02-06T05:45:51.135Z,-0.02
2023-02-06T05:50:55.024Z,-0.02
2023-02-06T05:55:57.719Z,-0.04
2023-02-06T06:01:09.972Z,-0.05
2023-02-06T06:06:18.798Z,-0.09
2023-02-06T06:11:20.677Z,-0.09
2023-02-06T06:16:24.567Z,-0.08
2023-02-06T06:21:29.416Z,-0.09
2023-02-06T06:26:40.529Z,-0.14
2023-02-06T06:31:44.126Z,-0.18
2023-02-06T06:36:45.749Z,-0.21
2023-02-06T06:41:47.314Z,-0.26
2023-02-06T06:46:51.710Z,-0.28
2023-02-06T06:51:56.493Z,-0.30
2023-02-06T06:56:58.277Z,-0.34
2023-02-06T07:02:04.908Z,-0.37
2023-02-06T07:07:08.935Z,-0.37
2023-02-06T07:12:31.826Z,-0.31
2023-02-06T07:17:33.450Z,-0.21
2023-02-06T07:22:35.207Z,-0.09
2023-02-06T07:27:40.643Z,0.02
2023-02-06T07:32:43.343Z,0.10
2023-02-06T07:37:53.131Z,0.20
2023-02-06T07:43:03.550Z,0.28
2023-02-06T07:48:10.184Z,0.37
2023-02-06T07:53:16.487Z,0.44
2023-02-06T07:58:20.429Z,0.52
2023-02-06T08:03:32.993Z,0.56
2023-02-06T08:08:38.821Z,0.63
2023-02-06T08:13:46.172Z,0.73
2023-02-06T08:18:57.276Z,0.80
2023-02-06T08:24:01.852Z,0.90
2023-02-06T08:29:09.948Z,0.97
2023-02-06T08:34:14.713Z,1.05
2023-02-06T08:39:19.239Z,1.13
2023-02-06T08:44:23.044Z,1.17
2023-02-06T08:49:29.114Z,1.27
2023-02-06T08:54:37.745Z,1.34
2023-02-06T08:59:45.695Z,1.43
2023-02-06T09:04:52.689Z,1.50
2023-02-06T09:09:54.224Z,1.59
2023-02-06T09:15:02.833Z,1.66
2023-02-06T09:20:15.089Z,1.71
2023-02-06T09:25:25.506Z,1.75
2023-02-06T09:30:29.465Z,1.79
2023-02-06T09:35:34.694Z,1.85
2023-02-06T09:40:37.187Z,1.89
2023-02-06T09:45:42.189Z,1.89
2023-02-06T09:51:10.718Z,1.89
2023-02-06T09:56:54.502Z,1.84
2023-02-06T10:02:18.970Z,1.86
2023-02-06T10:07:26.828Z,2.00
2023-02-06T10:12:41.278Z,2.12
2023-02-06T10:17:53.405Z,2.17
2023-02-06T10:23:26.970Z,2.30
2023-02-06T10:28:35.391Z,2.52
2023-02-06T10:34:00.175Z,2.65
2023-02-06T10:39:32.678Z,2.69
2023-02-06T10:45:09.819Z,2.74
2023-02-06T10:50:44.471Z,2.73
2023-02-06T10:55:57.400Z,2.78
2023-02-06T11:01:25.596Z,2.86
2023-02-06T11:06:30.641Z,2.95
2023-02-06T11:11:37.964Z,3.10
2023-02-06T11:16:42.633Z,3.28
2023-02-06T11:21:57.547Z,3.39
2023-02-06T11:27:13.356Z,3.50
2023-02-06T11:32:52.766Z,3.55
2023-02-06T11:38:21.368Z,3.59
2023-02-06T11:43:32.142Z,3.62
2023-02-06T11:48:41.068Z,3.66
2023-02-06T11:53:56.751Z,3.68
2023-02-06T11:59:23.446Z,3.72
2023-02-06T12:04:34.581Z,3.72
2023-02-06T12:09:36.203Z,3.75
2023-02-06T12:15:10.278Z,3.77
2023-02-06T12:20:33.522Z,3.77
2023-02-06T12:25:41.642Z,3.79
2023-02-06T12:30:59.204Z,3.82
2023-02-06T12:36:11.574Z,3.84
2023-02-06T12:41:47.338Z,3.84
2023-02-06T12:46:57.272Z,3.83
2023-02-06T12:52:27.823Z,3.83
2023-02-06T12:57:39.822Z,3.80
2023-02-06T13:03:06.802Z,3.80
2023-02-06T13:08:26.557Z,3.82
2023-02-06T13:13:43.164Z,3.85
2023-02-06T13:18:55.221Z,3.84
2023-02-06T13:24:02.892Z,3.86
2023-02-06T13:29:32.048Z,3.85
2023-02-06T13:34:40.603Z,3.84
2023-02-06T13:39:50.637Z,3.85
2023-02-06T13:44:59.461Z,3.85
2023-02-06T13:50:34.780Z,3.84
2023-02-06T13:55:48.197Z,3.82
2023-02-06T14:00:54.235Z,3.82
2023-02-06T14:06:11.242Z,3.81
2023-02-06T14:11:59.257Z,3.79
2023-02-06T14:17:24.763Z,3.76
2023-02-06T14:22:32.723Z,3.78
2023-02-06T14:28:04.468Z,3.79
2023-02-06T14:33:27.301Z,3.80
2023-02-06T14:38:56.821Z,3.79
2023-02-06T14:44:03.453Z,3.78
2023-02-06T14:49:16.513Z,3.78
2023-02-06T14:54:33.040Z,3.79
2023-02-06T14:59:36.986Z,3.80
2023-02-06T15:04:53.173Z,3.81
2023-02-06T15:09:57.598Z,3.82
2023-02-06T15:15:22.601Z,3.84
2023-02-06T15:20:35.415Z,3.82
2023-02-06T15:25:49.697Z,3.80
2023-02-06T15:31:03.653Z,3.80
2023-02-06T15:36:05.548Z,3.79
2023-02-06T15:41:18.490Z,3.78
2023-02-06T15:46:20.388Z,3.78
2023-02-06T15:51:39.326Z,3.77
2023-02-06T15:56:43.564Z,3.77
2023-02-06T16:01:45.204Z,3.75
2023-02-06T16:06:58.705Z,3.73
2023-02-06T16:12:01.913Z,3.69
2023-02-06T16:17:17.879Z,3.68
2023-02-06T16:22:29.719Z,3.64
2023-02-06T16:27:35.826Z,3.61
2023-02-06T16:32:37.528Z,3.58
2023-02-06T16:37:50.888Z,3.57
2023-02-06T16:42:54.694Z,3.53
2023-02-06T16:47:58.589Z,3.51
2023-02-06T16:53:05.502Z,3.51
2023-02-06T16:58:11.276Z,3.51
2023-02-06T17:03:17.307Z,3.46
2023-02-06T17:08:31.313Z,3.45
2023-02-06T17:13:40.300Z,3.45
2023-02-06T17:18:47.366Z,3.39
2023-02-06T17:23:57.314Z,3.37
2023-02-06T17:29:14.924Z,3.33
2023-02-06T17:34:23.282Z,3.31
2023-02-06T17:39:32.256Z,3.32
2023-02-06T17:44:35.845Z,3.32
2023-02-06T17:49:39.975Z,3.30
2023-02-06T17:54:46.296Z,3.29
2023-02-06T17:59:50.693Z,3.25
2023-02-06T18:04:55.422Z,3.23
2023-02-06T18:10:09.043Z,3.24
2023-02-06T18:15:12.913Z,3.25
2023-02-06T18:20:20.217Z,3.26
2023-02-06T18:25:29.362Z,3.24
2023-02-06T18:30:31.448Z,3.21
2023-02-06T18:35:38.409Z,3.18
2023-02-06T18:40:49.980Z,3.12
2023-02-06T18:46:16.279Z,3.01
2023-02-06T18:51:18.112Z,2.89
2023-02-06T18:56:27.681Z,2.79
2023-02-06T19:01:32.206Z,2.70
2023-02-06T19:06:44.116Z,2.57
2023-02-06T19:11:50.570Z,2.47
2023-02-06T19:17:01.978Z,2.36
2023-02-06T19:22:08.806Z,2.27
2023-02-06T19:27:13.507Z,2.18
2023-02-06T19:32:22.805Z,2.11
2023-02-06T19:37:30.639Z,2.04
2023-02-06T19:42:50.432Z,1.98
2023-02-06T19:47:56.620Z,1.91
2023-02-06T19:53:00.631Z,1.84
2023-02-06T19:58:03.171Z,1.77
2023-02-06T20:03:12.700Z,1.71
2023-02-06T20:08:17.606Z,1.63
2023-02-06T20:13:21.512Z,1.59
2023-02-06T20:18:26.698Z,1.52
2023-02-06T20:23:29.014Z,1.48
2023-02-06T20:28:35.568Z,1.41
2023-02-06T20:33:42.538Z,1.37
2023-02-06T20:38:53.731Z,1.30
2023-02-06T20:43:57.305Z,1.24
2023-02-06T20:49:03.215Z,1.19
2023-02-06T20:54:05.269Z,1.16
2023-02-06T20:59:34.217Z,1.06
2023-02-06T21:04:43.116Z,1.02
2023-02-06T21:09:51.820Z,0.98
2023-02-06T21:14:55.668Z,0.94
2023-02-06T21:19:57.280Z,0.92
2023-02-06T21:24:59.937Z,0.89
2023-02-06T21:30:07.672Z,0.87
2023-02-06T21:35:12.302Z,0.85
2023-02-06T21:40:18.163Z,0.84
2023-02-06T21:45:27.027Z,0.82
2023-02-06T21:50:33.225Z,0.78
2023-02-06T21:55:41.973Z,0.74
2023-02-06T22:00:48.417Z,0.70
2023-02-06T22:05:52.316Z,0.67
2023-02-06T22:10:56.516Z,0.62
2023-02-06T22:15:58.091Z,0.59
2023-02-06T22:21:23.344Z,0.52
2023-02-06T22:26:39.112Z,0.48
2023-02-06T22:31:43.160Z,0.40
2023-02-06T22:36:49.426Z,0.36
2023-02-06T22:41:51.448Z,0.32
2023-02-06T22:47:00.145Z,0.30
2023-02-06T22:52:27.204Z,0.28
2023-02-06T22:57:38.276Z,0.25
2023-02-06T23:03:09.634Z,0.22
2023-02-06T23:08:13.235Z,0.18
2023-02-06T23:13:17.227Z,0.15
2023-02-06T23:18:19.867Z,0.11
2023-02-06T23:23:23.772Z,0.09
2023-02-06T23:28:30.949Z,0.04
2023-02-06T23:33:32.564Z,-0.03
2023-02-06T23:38:36.574Z,-0.08
2023-02-06T23:43:45.855Z,-0.14
2023-02-06T23:48:52.806Z,-0.17
2023-02-06T23:53:57.019Z,-0.23
2023-02-06T23:59:00.557Z,-0.28
